createdAt,value
2023-03-06T00:00:51.692Z,18.40
2023-03-06T00:03:19.781Z,15.90
2023-03-06T00:05:46.842Z,16.60
2023-03-06T00:08:14.099Z,18.40
2023-03-06T00:10:40.987Z,17.80
2023-03-06T00:13:12.823Z,14.30
2023-03-06T00:15:40.152Z,14.90
2023-03-06T00:18:07.454Z,12.40
2023-03-06T00:20:35.109Z,13.90
2023-03-06T00:23:02.217Z,14.80
2023-03-06T00:25:29.454Z,15.60
2023-03-06T00:27:56.548Z,12.70
2023-03-06T00:30:24.427Z,12.70
2023-03-06T00:32:52.739Z,13.80
2023-03-06T00:35:19.849Z,13.10
2023-03-06T00:37:46.820Z,13.00
2023-03-06T00:40:19.210Z,13.20
2023-03-06T00:42:47.115Z,12.90
2023-03-06T00:45:14.100Z,13.20
2023-03-06T00:47:41.377Z,16.50
2023-03-06T00:50:10.204Z,14.00
2023-03-06T00:52:37.400Z,14.00
2023-03-06T00:55:05.611Z,12.30
2023-03-06T00:57:32.410Z,12.80
2023-03-06T00:59:59.199Z,10.70
2023-03-06T01:02:26.103Z,11.60
2023-03-06T01:04:54.906Z,7.90
2023-03-06T01:07:22.144Z,9.50
2023-03-06T01:09:50.443Z,7.80
2023-03-06T01:12:17.312Z,9.70
2023-03-06T01:14:44.832Z,9.10
2023-03-06T01:17:11.658Z,7.90
2023-03-06T01:19:38.421Z,8.00
2023-03-06T01:22:05.201Z,7.70
2023-03-06T01:24:32.091Z,7.90
2023-03-06T01:26:58.855Z,8.90
2023-03-06T01:29:25.768Z,8.90
2023-03-06T01:31:52.886Z,11.20
2023-03-06T01:34:19.722Z,9.80
2023-03-06T01:36:46.554Z,7.10
2023-03-06T01:39:13.356Z,8.50
2023-03-06T01:41:40.119Z,10.10
2023-03-06T01:44:07.075Z,10.50
2023-03-06T01:46:41.270Z,9.00
2023-03-06T01:49:13.984Z,9.20
2023-03-06T01:52:17.043Z,10.20
2023-03-06T01:54:59.154Z,7.40
2023-03-06T01:57:33.037Z,9.30
2023-03-06T02:00:14.049Z,8.00
2023-03-06T02:02:47.244Z,7.50
2023-03-06T02:05:14.147Z,8.10
2023-03-06T02:07:43.847Z,7.90
2023-03-06T02:10:16.519Z,9.10
2023-03-06T02:12:45.982Z,9.60
2023-03-06T02:15:16.195Z,7.90
2023-03-06T02:17:45.653Z,7.70
2023-03-06T02:20:30.576Z,10.00
2023-03-06T02:23:08.247Z,9.90
2023-03-06T02:25:42.700Z,7.40
2023-03-06T02:28:15.212Z,10.10
2023-03-06T02:30:44.014Z,7.40
2023-03-06T02:33:18.817Z,6.90
2023-03-06T02:36:01.972Z,9.10
2023-03-06T02:38:50.564Z,7.30
2023-03-06T02:41:17.939Z,8.60
2023-03-06T02:44:06.079Z,8.60
2023-03-06T02:46:32.903Z,8.90
2023-03-06T02:48:59.710Z,5.80
2023-03-06T02:51:26.547Z,7.10
2023-03-06T02:53:53.335Z,9.20
2023-03-06T02:56:22.279Z,8.80
2023-03-06T02:58:49.113Z,10.70
2023-03-06T03:01:15.956Z,10.80
2023-03-06T03:03:43.922Z,9.30
2023-03-06T03:06:10.963Z,10.60
2023-03-06T03:08:37.824Z,9.90
2023-03-06T03:11:05.653Z,14.70
2023-03-06T03:13:38.173Z,16.40
2023-03-06T03:16:14.597Z,13.00
2023-03-06T03:18:47.268Z,12.70
2023-03-06T03:21:15.271Z,11.10
2023-03-06T03:23:42.167Z,14.70
2023-03-06T03:26:18.639Z,16.80
2023-03-06T03:28:50.375Z,15.50
2023-03-06T03:31:18.754Z,19.10
2023-03-06T03:33:45.654Z,16.00
2023-03-06T03:36:12.788Z,17.80
2023-03-06T03:38:41.792Z,17.80
2023-03-06T03:41:08.606Z,17.90
2023-03-06T03:43:35.397Z,16.00
2023-03-06T03:46:02.275Z,18.40
2023-03-06T03:48:29.113Z,17.10
2023-03-06T03:51:04.964Z,14.40
2023-03-06T03:53:32.606Z,16.70
2023-03-06T03:55:59.474Z,14.80
2023-03-06T03:58:26.646Z,10.80
2023-03-06T04:00:53.486Z,11.50
2023-03-06T04:03:20.675Z,14.30
2023-03-06T04:05:47.489Z,12.00
2023-03-06T04:08:15.487Z,13.50
2023-03-06T04:10:44.058Z,14.70
2023-03-06T04:13:11.572Z,11.50
2023-03-06T04:15:41.527Z,14.10
2023-03-06T04:18:08.995Z,13.30
2023-03-06T04:20:36.027Z,12.40
2023-03-06T04:23:02.971Z,13.20
2023-03-06T04:25:29.794Z,13.60
2023-03-06T04:27:58.039Z,14.00
2023-03-06T04:30:25.321Z,13.70
2023-03-06T04:32:52.249Z,13.10
2023-03-06T04:35:19.235Z,12.60
2023-03-06T04:37:52.999Z,14.50
2023-03-06T04:40:29.102Z,14.30
2023-03-06T04:42:58.786Z,14.60
2023-03-06T04:45:27.378Z,15.40
2023-03-06T04:47:54.933Z,12.80
2023-03-06T04:50:24.317Z,14.40
2023-03-06T04:52:51.575Z,14.50
2023-03-06T04:55:18.721Z,17.90
2023-03-06T04:57:46.733Z,17.00
2023-03-06T05:00:23.599Z,19.40
2023-03-06T05:02:51.131Z,20.90
2023-03-06T05:05:18.144Z,28.50
2023-03-06T05:07:45.052Z,33.00
2023-03-06T05:10:15.369Z,57.10
2023-03-06T05:12:42.675Z,56.50
2023-03-06T05:15:11.381Z,45.50
2023-03-06T05:17:38.853Z,46.40
2023-03-06T05:20:08.966Z,43.30
2023-03-06T05:22:36.258Z,31.10
2023-03-06T05:25:04.297Z,27.80
2023-03-06T05:27:31.162Z,32.30
2023-03-06T05:29:58.038Z,27.90
2023-03-06T05:32:24.981Z,28.70
2023-03-06T05:34:51.914Z,26.30
2023-03-06T05:37:18.732Z,29.50
2023-03-06T05:39:45.947Z,30.10
2023-03-06T05:42:12.732Z,106.80
2023-03-06T05:44:41.058Z,93.50
2023-03-06T05:47:08.468Z,78.10
2023-03-06T05:49:36.148Z,72.60
2023-03-06T05:52:05.191Z,66.60
2023-03-06T05:54:33.774Z,51.30
2023-03-06T05:57:01.041Z,58.50
2023-03-06T05:59:28.499Z,67.60
2023-03-06T06:01:55.775Z,72.60
2023-03-06T06:04:25.561Z,50.60
2023-03-06T06:06:58.771Z,38.50
2023-03-06T06:11:56.125Z,38.30
2023-03-06T06:14:22.960Z,33.20
2023-03-06T06:16:54.748Z,35.60
2023-03-06T06:19:22.664Z,29.40
2023-03-06T06:21:53.262Z,28.40
2023-03-06T06:24:23.936Z,30.00
2023-03-06T06:26:54.200Z,31.10
2023-03-06T06:29:22.880Z,27.60
2023-03-06T06:31:50.155Z,48.00
2023-03-06T06:34:18.228Z,45.60
2023-03-06T06:36:45.187Z,42.50
2023-03-06T06:39:16.106Z,35.70
2023-03-06T06:41:59.363Z,28.90
2023-03-06T06:44:30.721Z,32.00
2023-03-06T06:49:49.942Z,29.50
2023-03-06T06:52:18.116Z,29.80
2023-03-06T06:54:45.389Z,22.70
2023-03-06T06:57:12.249Z,22.80
2023-03-06T06:59:39.054Z,21.60
2023-03-06T07:02:06.656Z,20.30
2023-03-06T07:04:33.784Z,23.70
2023-03-06T07:07:00.562Z,20.70
2023-03-06T07:09:29.590Z,22.00
2023-03-06T07:11:56.949Z,17.30
2023-03-06T07:14:24.117Z,16.70
2023-03-06T07:16:51.226Z,17.40
2023-03-06T07:19:18.036Z,20.00
2023-03-06T07:21:44.821Z,20.10
2023-03-06T07:24:11.627Z,15.80
2023-03-06T07:26:38.410Z,21.50
2023-03-06T07:29:05.350Z,18.30
2023-03-06T07:31:32.211Z,19.50
2023-03-06T07:33:58.997Z,21.10
2023-03-06T07:36:25.840Z,21.40
2023-03-06T07:38:52.633Z,18.90
2023-03-06T07:41:22.147Z,20.80
2023-03-06T07:43:49.882Z,21.30
2023-03-06T07:46:17.378Z,22.30
2023-03-06T07:48:44.638Z,22.50
2023-03-06T07:51:20.802Z,17.70
2023-03-06T07:53:49.233Z,17.70
2023-03-06T07:56:16.223Z,17.70
2023-03-06T07:58:45.677Z,22.90
2023-03-06T08:01:19.226Z,18.90
2023-03-06T08:03:48.441Z,17.80
2023-03-06T08:06:19.431Z,28.90
2023-03-06T08:08:48.062Z,26.50
2023-03-06T08:11:18.069Z,26.20
2023-03-06T08:13:46.151Z,24.40
2023-03-06T08:16:12.997Z,18.60
2023-03-06T08:18:40.032Z,52.30
2023-03-06T08:21:16.811Z,77.30
2023-03-06T08:23:44.330Z,30.40
2023-03-06T08:26:18.458Z,23.90
2023-03-06T08:28:45.782Z,36.80
2023-03-06T08:31:42.961Z,24.10
2023-03-06T08:34:17.050Z,21.30
2023-03-06T08:36:44.012Z,31.60
2023-03-06T08:39:11.138Z,163.50
2023-03-06T08:41:38.313Z,40.20
2023-03-06T08:44:05.834Z,21.10
2023-03-06T08:46:34.035Z,18.90
2023-03-06T08:49:01.886Z,20.10
2023-03-06T08:51:29.031Z,14.70
2023-03-06T08:53:57.319Z,13.90
2023-03-06T08:56:28.656Z,18.80
2023-03-06T08:58:57.949Z,19.70
2023-03-06T09:01:31.579Z,17.00
2023-03-06T09:04:01.459Z,26.30
2023-03-06T09:06:32.908Z,14.20
2023-03-06T09:09:00.161Z,16.60
2023-03-06T09:11:28.286Z,14.00
2023-03-06T09:13:56.999Z,15.50
2023-03-06T09:16:24.719Z,15.80
2023-03-06T09:18:53.319Z,16.70
2023-03-06T09:21:21.702Z,15.40
2023-03-06T09:23:48.812Z,15.30
2023-03-06T09:26:15.641Z,15.40
2023-03-06T09:28:42.475Z,9.10
2023-03-06T09:31:13.255Z,11.60
2023-03-06T09:33:40.082Z,17.70
2023-03-06T09:36:08.354Z,16.80
2023-03-06T09:38:35.251Z,14.00
2023-03-06T09:41:22.241Z,27.80
2023-03-06T09:43:53.445Z,13.00
2023-03-06T09:46:45.531Z,11.60
2023-03-06T09:49:37.709Z,10.50
2023-03-06T09:52:31.034Z,11.70
2023-03-06T09:55:16.405Z,10.30
2023-03-06T09:57:59.920Z,13.20
2023-03-06T10:03:29.126Z,12.80
2023-03-06T10:06:09.688Z,10.10
2023-03-06T10:09:01.547Z,7.00
2023-03-06T10:11:42.453Z,9.50
2023-03-06T10:14:34.443Z,7.70
2023-03-06T10:17:02.048Z,7.10
2023-03-06T10:19:41.520Z,8.30
2023-03-06T10:22:32.313Z,7.80
2023-03-06T10:25:42.202Z,9.30
2023-03-06T10:28:20.399Z,7.30
2023-03-06T10:30:53.332Z,7.00
2023-03-06T10:33:22.283Z,6.30
2023-03-06T10:35:52.735Z,7.50
2023-03-06T10:38:36.945Z,8.50
2023-03-06T10:41:13.006Z,6.40
2023-03-06T10:44:04.730Z,10.30
2023-03-06T10:46:39.084Z,8.10
2023-03-06T10:49:30.004Z,9.60
2023-03-06T10:52:09.030Z,6.90
2023-03-06T10:54:39.494Z,7.00
2023-03-06T10:57:29.191Z,6.90
2023-03-06T11:00:23.838Z,5.60
2023-03-06T11:03:19.986Z,6.10
2023-03-06T11:06:34.381Z,18.90
2023-03-06T11:09:36.755Z,16.20
2023-03-06T11:12:34.210Z,8.60
2023-03-06T11:15:23.066Z,5.50
2023-03-06T11:18:07.616Z,9.60
2023-03-06T11:20:53.147Z,9.30
2023-03-06T11:23:45.900Z,8.50
2023-03-06T11:26:28.416Z,6.80
2023-03-06T11:29:39.920Z,13.70
2023-03-06T11:32:11.943Z,9.40
2023-03-06T11:35:17.921Z,13.40
2023-03-06T11:38:04.214Z,8.80
2023-03-06T11:40:48.981Z,8.30
2023-03-06T11:43:24.614Z,6.90
2023-03-06T11:46:23.963Z,8.70
2023-03-06T11:49:06.535Z,7.00
2023-03-06T11:51:40.890Z,6.80
2023-03-06T11:54:11.803Z,8.20
2023-03-06T11:56:59.217Z,7.70
2023-03-06T11:59:47.687Z,7.80
2023-03-06T12:02:23.444Z,8.10
2023-03-06T12:05:22.338Z,7.80
2023-03-06T12:08:19.083Z,7.20
2023-03-06T12:11:19.024Z,5.80
2023-03-06T12:14:04.195Z,11.00
2023-03-06T12:16:50.573Z,6.50
2023-03-06T12:19:38.520Z,10.40
2023-03-06T12:22:26.074Z,6.60
2023-03-06T12:24:58.883Z,5.90
2023-03-06T12:27:47.257Z,5.40
2023-03-06T12:30:39.464Z,8.10
2023-03-06T12:33:19.889Z,8.20
2023-03-06T12:36:10.113Z,8.30
2023-03-06T12:38:58.226Z,8.00
2023-03-06T12:41:32.207Z,9.30
2023-03-06T12:44:35.745Z,8.70
2023-03-06T12:47:09.407Z,9.50
2023-03-06T12:49:41.488Z,7.10
2023-03-06T12:52:21.619Z,12.00
2023-03-06T12:54:53.083Z,8.20
2023-03-06T12:57:23.485Z,9.10
2023-03-06T12:59:52.354Z,10.30
2023-03-06T13:02:52.773Z,11.30
2023-03-06T13:06:27.223Z,8.50
2023-03-06T13:09:19.715Z,8.20
2023-03-06T13:12:14.421Z,9.10
2023-03-06T13:14:48.649Z,7.60
2023-03-06T13:17:23.927Z,8.10
2023-03-06T13:20:12.690Z,7.50
2023-03-06T13:22:46.746Z,8.10
2023-03-06T13:25:16.628Z,15.70
2023-03-06T13:27:52.403Z,30.60
2023-03-06T13:30:35.623Z,21.40
2023-03-06T13:33:29.223Z,13.70
2023-03-06T13:35:58.170Z,14.80
2023-03-06T13:38:58.171Z,14.00
2023-03-06T13:41:30.997Z,12.20
2023-03-06T13:44:01.902Z,9.00
2023-03-06T13:46:36.030Z,9.60
2023-03-06T13:49:22.411Z,9.00
2023-03-06T13:51:52.022Z,10.10
2023-03-06T13:55:08.835Z,9.20
2023-03-06T13:57:51.737Z,8.80
2023-03-06T14:00:56.848Z,11.60
2023-03-06T14:03:41.896Z,11.30
2023-03-06T14:06:33.719Z,11.20
2023-03-06T14:09:11.222Z,8.20
2023-03-06T14:11:45.353Z,8.00
2023-03-06T14:14:12.393Z,7.90
2023-03-06T14:16:49.806Z,18.50
2023-03-06T14:19:18.333Z,10.00
2023-03-06T14:21:55.735Z,10.10
2023-03-06T14:24:37.247Z,15.10
2023-03-06T14:27:04.293Z,25.90
2023-03-06T14:29:33.112Z,15.00
2023-03-06T14:32:01.419Z,10.80
2023-03-06T14:34:45.476Z,11.70
2023-03-06T14:37:31.640Z,14.40
2023-03-06T14:39:58.527Z,13.60
2023-03-06T14:42:29.174Z,9.30
2023-03-06T14:45:04.766Z,11.50
2023-03-06T14:47:35.508Z,11.00
2023-03-06T14:50:34.733Z,9.40
2023-03-06T14:53:30.979Z,10.30
2023-03-06T14:56:06.409Z,15.00
2023-03-06T14:58:44.012Z,130.60
2023-03-06T15:01:12.884Z,63.70
2023-03-06T15:03:49.167Z,31.00
2023-03-06T15:06:20.731Z,45.10
2023-03-06T15:09:15.053Z,23.30
2023-03-06T15:11:54.154Z,11.60
2023-03-06T15:14:28.124Z,19.40
2023-03-06T15:16:54.900Z,14.80
2023-03-06T15:19:22.644Z,14.40
2023-03-06T15:21:51.692Z,10.50
2023-03-06T15:24:36.097Z,10.80
2023-03-06T15:27:06.474Z,12.50
2023-03-06T15:29:38.270Z,11.70
2023-03-06T15:32:35.150Z,15.10
2023-03-06T15:35:51.802Z,13.70
2023-03-06T15:38:38.929Z,14.20
2023-03-06T15:41:27.829Z,14.70
2023-03-06T15:43:56.735Z,14.20
2023-03-06T15:46:23.658Z,17.00
2023-03-06T15:49:04.304Z,16.70
2023-03-06T15:51:32.735Z,16.30
2023-03-06T15:54:12.317Z,19.60
2023-03-06T15:56:43.963Z,20.00
2023-03-06T15:59:30.223Z,20.40
2023-03-06T16:02:02.751Z,16.40
2023-03-06T16:04:29.795Z,103.10
2023-03-06T16:06:56.544Z,67.00
2023-03-06T16:09:23.285Z,40.30
2023-03-06T16:11:50.122Z,21.30
2023-03-06T16:14:23.136Z,31.30
2023-03-06T16:16:53.240Z,51.30
2023-03-06T16:19:26.881Z,40.90
2023-03-06T16:21:56.076Z,35.80
2023-03-06T16:24:25.446Z,49.80
2023-03-06T16:26:54.334Z,40.20
2023-03-06T16:29:24.981Z,27.00
2023-03-06T16:31:54.380Z,36.00
2023-03-06T16:34:21.502Z,31.70
2023-03-06T16:36:50.018Z,34.40
2023-03-06T16:39:21.348Z,27.40
2023-03-06T16:41:51.467Z,43.20
2023-03-06T16:44:19.513Z,82.80
2023-03-06T16:46:48.670Z,171.70
2023-03-06T16:49:25.857Z,80.20
2023-03-06T16:51:53.471Z,61.10
2023-03-06T16:54:22.583Z,48.30
2023-03-06T16:56:49.378Z,39.90
2023-03-06T16:59:16.188Z,45.90
2023-03-06T17:01:43.403Z,106.10
2023-03-06T17:04:10.873Z,77.50
2023-03-06T17:06:38.336Z,44.40
2023-03-06T17:09:05.306Z,40.30
2023-03-06T17:11:32.132Z,58.30
2023-03-06T17:13:59.604Z,59.80
2023-03-06T17:16:26.398Z,110.60
2023-03-06T17:18:54.334Z,148.20
2023-03-06T17:21:21.191Z,136.30
2023-03-06T17:23:48.009Z,201.60
2023-03-06T17:26:18.198Z,218.70
2023-03-06T17:28:46.234Z,132.90
2023-03-06T17:31:18.653Z,94.40
2023-03-06T17:33:45.762Z,73.60
2023-03-06T17:36:13.880Z,90.40
2023-03-06T17:38:41.760Z,79.30
2023-03-06T17:41:11.226Z,60.50
2023-03-06T17:43:39.152Z,78.50
2023-03-06T17:46:12.547Z,62.80
2023-03-06T17:48:39.612Z,59.80
2023-03-06T17:51:07.084Z,58.20
2023-03-06T17:53:35.031Z,53.10
2023-03-06T17:56:08.972Z,48.40
2023-03-06T17:58:35.739Z,48.00
2023-03-06T18:01:18.530Z,41.60
2023-03-06T18:03:48.792Z,42.70
2023-03-06T18:06:17.790Z,43.50
2023-03-06T18:08:45.328Z,43.90
2023-03-06T18:11:12.809Z,51.10
2023-03-06T18:13:42.648Z,44.90
2023-03-06T18:16:13.558Z,68.00
2023-03-06T18:18:40.442Z,71.50
2023-03-06T18:21:13.829Z,75.90
2023-03-06T18:23:40.997Z,62.50
2023-03-06T18:26:21.537Z,66.20
2023-03-06T18:28:57.090Z,52.60
2023-03-06T18:31:27.945Z,54.00
2023-03-06T18:33:58.342Z,50.50
2023-03-06T18:36:28.652Z,49.00
2023-03-06T18:38:56.520Z,43.00
2023-03-06T18:41:23.634Z,46.90
2023-03-06T18:43:55.454Z,55.30
2023-03-06T18:46:23.731Z,71.60
2023-03-06T18:48:50.870Z,55.90
2023-03-06T18:51:19.389Z,47.60
2023-03-06T18:53:46.472Z,36.80
2023-03-06T18:56:20.664Z,35.80
2023-03-06T18:58:48.063Z,36.90
2023-03-06T19:01:14.901Z,45.80
2023-03-06T19:03:42.200Z,49.60
2023-03-06T19:06:14.819Z,50.60
2023-03-06T19:08:41.892Z,54.40
2023-03-06T19:11:12.435Z,56.00
2023-03-06T19:13:39.283Z,52.60
2023-03-06T19:16:07.433Z,50.80
2023-03-06T19:18:34.798Z,57.00
2023-03-06T19:21:17.037Z,59.80
2023-03-06T19:23:44.709Z,54.30
2023-03-06T19:26:12.313Z,57.50
2023-03-06T19:28:41.333Z,54.90
2023-03-06T19:31:14.793Z,58.70
2023-03-06T19:33:42.388Z,64.30
2023-03-06T19:36:12.248Z,63.70
2023-03-06T19:38:40.222Z,54.10
2023-03-06T19:41:12.937Z,52.50
2023-03-06T19:43:42.043Z,41.70
2023-03-06T19:46:13.132Z,51.30
2023-03-06T19:48:41.519Z,38.10
2023-03-06T19:51:09.153Z,37.40
2023-03-06T19:53:36.088Z,32.50
2023-03-06T19:56:17.507Z,31.00
2023-03-06T19:58:44.313Z,40.90
2023-03-06T20:01:14.789Z,41.60
2023-03-06T20:03:42.441Z,45.50
2023-03-06T20:06:15.704Z,49.40
2023-03-06T20:11:23.433Z,49.20
2023-03-06T20:13:50.396Z,54.50
2023-03-06T20:16:18.059Z,52.50
2023-03-06T20:18:45.023Z,50.10
2023-03-06T20:21:12.394Z,54.50
2023-03-06T20:23:39.417Z,64.00
2023-03-06T20:26:12.298Z,59.90
2023-03-06T20:28:41.632Z,57.50
2023-03-06T20:31:18.295Z,48.20
2023-03-06T20:33:47.849Z,52.00
2023-03-06T20:36:18.781Z,54.60
2023-03-06T20:38:46.558Z,51.90
2023-03-06T20:41:26.390Z,57.50
2023-03-06T20:43:53.948Z,63.30
2023-03-06T20:46:22.528Z,56.30
2023-03-06T20:48:52.142Z,57.60
2023-03-06T20:51:27.260Z,54.40
2023-03-06T20:53:55.302Z,49.40
2023-03-06T20:56:26.849Z,59.40
2023-03-06T20:58:53.595Z,48.40
2023-03-06T21:01:25.162Z,58.10
2023-03-06T21:03:53.418Z,50.70
2023-03-06T21:06:20.594Z,53.20
2023-03-06T21:08:48.217Z,43.60
2023-03-06T21:11:16.380Z,51.40
2023-03-06T21:13:43.344Z,51.50
2023-03-06T21:16:18.262Z,58.20
2023-03-06T21:18:45.606Z,55.90
2023-03-06T21:21:17.563Z,54.50
2023-03-06T21:23:46.303Z,56.70
2023-03-06T21:26:16.315Z,51.20
2023-03-06T21:28:43.676Z,51.90
2023-03-06T21:31:12.937Z,43.90
2023-03-06T21:33:40.457Z,54.80
2023-03-06T21:36:08.549Z,47.60
2023-03-06T21:38:36.021Z,52.00
2023-03-06T21:41:15.439Z,48.70
2023-03-06T21:43:42.610Z,49.60
2023-03-06T21:46:10.613Z,56.40
2023-03-06T21:48:37.738Z,54.40
2023-03-06T21:51:18.358Z,58.60
2023-03-06T21:53:47.510Z,55.70
2023-03-06T21:56:18.149Z,59.30
2023-03-06T21:58:45.400Z,56.00
2023-03-06T22:01:17.803Z,52.70
2023-03-06T22:03:45.023Z,48.60
2023-03-06T22:06:18.559Z,60.50
2023-03-06T22:08:46.476Z,59.10
2023-03-06T22:11:20.214Z,56.80
2023-03-06T22:13:47.727Z,53.60
2023-03-06T22:16:15.870Z,56.10
2023-03-06T22:18:48.019Z,53.30
2023-03-06T22:21:18.062Z,51.30
2023-03-06T22:23:53.380Z,49.90
2023-03-06T22:26:20.560Z,48.60
2023-03-06T22:28:47.371Z,49.90
2023-03-06T22:31:23.242Z,52.70
2023-03-06T22:33:54.577Z,48.30
2023-03-06T22:36:22.641Z,52.60
2023-03-06T22:38:55.500Z,53.60
2023-03-06T22:41:23.052Z,48.30
2023-03-06T22:43:49.803Z,46.20
2023-03-06T22:46:17.706Z,47.60
2023-03-06T22:48:44.584Z,53.60
2023-03-06T22:51:18.071Z,48.30
2023-03-06T22:53:46.509Z,44.00
2023-03-06T22:56:17.327Z,46.80
2023-03-06T22:58:44.895Z,46.40
2023-03-06T23:01:14.575Z,46.70
2023-03-06T23:03:45.124Z,45.90
2023-03-06T23:06:19.671Z,49.40
2023-03-06T23:08:53.565Z,43.20
2023-03-06T23:11:21.741Z,44.00
2023-03-06T23:14:07.505Z,50.80
2023-03-06T23:16:52.805Z,43.60
2023-03-06T23:19:38.384Z,39.00
2023-03-06T23:22:23.760Z,42.80
2023-03-06T23:25:09.429Z,44.90
2023-03-06T23:27:36.247Z,45.80
2023-03-06T23:30:05.537Z,40.70
2023-03-06T23:32:33.019Z,38.90
2023-03-06T23:35:00.407Z,40.00
2023-03-06T23:37:27.144Z,35.70
2023-03-06T23:39:54.282Z,36.70
2023-03-06T23:42:21.991Z,39.50
2023-03-06T23:44:48.831Z,29.40
2023-03-06T23:47:16.675Z,40.20
2023-03-06T23:49:43.451Z,31.10
2023-03-06T23:52:10.236Z,37.40
2023-03-06T23:54:37.424Z,28.70
2023-03-06T23:57:04.253Z,20.10
2023-03-06T23:59:31.156Z,15.50
